KNEL/NEL METAR and TAF weather

Enter ICAO airport designator
Station Type Date Time Source
KNEL METAR 2020/09/30 15:00 UTC NOAA

KNEL 301500Z 28012G20KT 10SM SCT032 19/11 A2976 RMK AO2 SLPNO 60001 T01830117 50022 $


Station Type Date Time Source
KNEL Decoded METAR 2020/09/30 15:00 UTC NOAA

Lakehurst Naval Air Station, NJ, United States (KNEL) 40-02N 074-19W 24M
Sep 30, 2020 - 11:00 AM EDT / 2020.09.30 1500 UTC
Wind: from the W (280 degrees) at 14 MPH (12 KT) gusting to 23 MPH (20 KT):0
Visibility: 10 mile(s):0
Sky conditions: partly cloudy
Temperature: 64.9 F (18.3 C)
Dew Point: 53.1 F (11.7 C)
Relative Humidity: 65%
Pressure (altimeter): 29.76 in. Hg (1007 hPa)
Pressure tendency: 0.06 inches (2.2 hPa) higher than three hours ago
ob: KNEL 301500Z 28012G20KT 10SM SCT032 19/11 A2976 RMK AO2 SLPNO 60001 T01830117 50022
cycle: 15

Station Type Date Time Source
KNEL TAF UTC NOAA

Error!

Example: see airport list